Time;durP1;ratioP1;P1;durP2;ratioP2;P2;SDS_P1;SDS_P2;PMS_P1;PMS_P2;Temp;Humidity;BMP_temperature;BMP_pressure;BME280_temperature;BME280_humidity;BME280_pressure;Samples;Min_cycle;Max_cycle;Signal;HPM_P1;HPM_P2
2022/09/29 00:02:10;;;;;;;;;;;5.70;99.90;;;;;;5042261;28;1230;-60
2022/09/29 00:04:36;;;;;;;;;;;5.60;99.90;;;;;;5053204;28;1004;-60
2022/09/29 00:07:02;;;;;;;;;;;5.60;99.90;;;;;;5052999;28;1166;-60
2022/09/29 00:09:27;;;;;;;;;;;5.60;99.90;;;;;;5054263;28;989;-61
2022/09/29 00:11:54;;;;;;;;;;;5.80;99.90;;;;;;5037280;28;1185;-60
2022/09/29 00:14:20;;;;;;;;;;;5.80;99.90;;;;;;5033848;28;838;-60
2022/09/29 00:16:46;;;;;;;;;;;5.90;99.90;;;;;;5046933;28;1971;-60
2022/09/29 00:19:12;;;;;;;;;;;5.90;99.90;;;;;;5018099;28;1661;-61
2022/09/29 00:21:37;;;;;;;;;;;6.00;99.90;;;;;;5033878;28;945;-60
2022/09/29 00:24:03;;;;;;;;;;;6.00;99.90;;;;;;5034045;28;1178;-60
2022/09/29 00:26:28;;;;;;;;;;;6.10;99.90;;;;;;5053314;28;976;-60
2022/09/29 00:28:55;;;;;;;;;;;6.10;99.90;;;;;;5052658;28;1154;-60
2022/09/29 00:31:22;;;;;;;;;;;6.10;99.90;;;;;;5053978;28;1071;-60
2022/09/29 00:33:49;;;;;;;;;;;6.20;99.90;;;;;;5041914;28;1247;-60
2022/09/29 00:36:16;;;;;;;;;;;6.20;99.90;;;;;;5053659;28;1963;-60
2022/09/29 00:38:43;;;;;;;;;;;6.30;99.90;;;;;;5034880;28;1434;-61
2022/09/29 00:41:16;;;;;;;;;;;6.30;99.90;;;;;;5053093;28;1028;-60
2022/09/29 00:43:47;;;;;;;;;;;6.30;99.90;;;;;;5036605;28;1154;-61
2022/09/29 00:46:14;;;;;;;;;;;6.30;99.90;;;;;;5022229;28;1132;-60
2022/09/29 00:48:40;;;;;;;;;;;6.30;99.90;;;;;;5024370;28;1284;-61
2022/09/29 00:51:06;;;;;;;;;;;6.30;99.90;;;;;;5016866;28;1219;-61
2022/09/29 00:53:33;;;;;;;;;;;6.30;99.90;;;;;;5044417;28;1040;-61
2022/09/29 00:56:01;;;;;;;;;;;6.30;99.90;;;;;;5046448;28;1914;-60
2022/09/29 00:58:34;;;;;;;;;;;6.30;99.90;;;;;;5017667;28;1627;-60
2022/09/29 01:01:00;;;;;;;;;;;6.30;99.90;;;;;;5045480;28;1152;-60
2022/09/29 01:03:28;;;;;;;;;;;6.50;99.90;;;;;;5050468;28;1134;-60
2022/09/29 01:05:57;;;;;;;;;;;6.50;99.90;;;;;;5015861;28;830;-60
2022/09/29 01:08:27;;;;;;;;;;;6.40;99.90;;;;;;5032636;28;1170;-60
2022/09/29 01:10:53;;;;;;;;;;;6.40;99.90;;;;;;5033744;28;814;-60
2022/09/29 01:13:19;;;;;;;;;;;6.30;99.90;;;;;;5015212;28;1207;-60
2022/09/29 01:15:44;;;;;;;;;;;6.30;99.90;;;;;;5032849;28;1910;-60
2022/09/29 01:18:10;;;;;;;;;;;6.30;99.90;;;;;;5033439;28;1233;-60
2022/09/29 01:20:43;;;;;;;;;;;6.30;99.90;;;;;;5032880;28;1255;-60
2022/09/29 01:23:08;;;;;;;;;;;6.20;99.90;;;;;;5033227;28;1382;-60
2022/09/29 01:25:53;;;;;;;;;;;6.10;99.90;;;;;;5033141;28;1268;-60
2022/09/29 01:28:25;;;;;;;;;;;6.10;99.90;;;;;;5032218;28;1203;-60
2022/09/29 01:30:59;;;;;;;;;;;6.10;99.90;;;;;;5032219;28;1264;-60
2022/09/29 01:33:37;;;;;;;;;;;6.10;99.90;;;;;;5037171;28;877;-60
2022/09/29 01:36:07;;;;;;;;;;;6.20;99.90;;;;;;5045477;28;1967;-60
2022/09/29 01:38:34;;;;;;;;;;;6.10;99.90;;;;;;5055927;28;1111;-60
2022/09/29 01:41:00;;;;;;;;;;;6.10;99.90;;;;;;5040938;28;1264;-60
2022/09/29 01:43:42;;;;;;;;;;;6.00;99.90;;;;;;5035540;28;1127;-60
2022/09/29 01:46:12;;;;;;;;;;;6.00;99.90;;;;;;5036806;28;1222;-60
2022/09/29 01:48:39;;;;;;;;;;;6.00;99.90;;;;;;5039837;28;1158;-60
2022/09/29 01:51:09;;;;;;;;;;;6.00;99.90;;;;;;5035682;28;1059;-60
2022/09/29 01:53:37;;;;;;;;;;;6.00;99.90;;;;;;5018379;28;1792;-60
2022/09/29 01:56:06;;;;;;;;;;;6.10;99.90;;;;;;5036194;28;1906;-60
2022/09/29 01:58:34;;;;;;;;;;;6.10;99.90;;;;;;5049273;28;1359;-60
2022/09/29 02:01:03;;;;;;;;;;;6.10;99.90;;;;;;5036649;28;822;-60
2022/09/29 02:03:29;;;;;;;;;;;6.10;99.90;;;;;;5053013;28;1242;-60
2022/09/29 02:05:57;;;;;;;;;;;6.10;99.90;;;;;;5054374;28;1198;-60
2022/09/29 02:08:28;;;;;;;;;;;6.10;99.90;;;;;;5056346;28;810;-60
2022/09/29 02:10:58;;;;;;;;;;;6.00;99.90;;;;;;5050092;28;1158;-60
2022/09/29 02:13:25;;;;;;;;;;;5.80;99.90;;;;;;5035450;28;1111;-60
2022/09/29 02:15:53;;;;;;;;;;;5.70;99.90;;;;;;5051502;28;1910;-60
2022/09/29 02:18:21;;;;;;;;;;;5.70;99.90;;;;;;5046283;28;1652;-60
2022/09/29 02:20:47;;;;;;;;;;;5.70;99.90;;;;;;5049379;28;1151;-60
2022/09/29 02:23:13;;;;;;;;;;;5.90;99.90;;;;;;5037522;28;1182;-60
2022/09/29 02:25:39;;;;;;;;;;;5.90;99.90;;;;;;5055236;28;996;-60
2022/09/29 02:28:05;;;;;;;;;;;5.90;99.90;;;;;;5054978;28;1138;-60
2022/09/29 02:30:32;;;;;;;;;;;5.90;99.90;;;;;;5040969;28;1177;-60
2022/09/29 02:32:57;;;;;;;;;;;5.90;99.90;;;;;;5045949;28;1179;-60
2022/09/29 02:35:24;;;;;;;;;;;5.90;99.90;;;;;;5055262;28;798;-60
2022/09/29 02:38:06;;;;;;;;;;;5.80;99.90;;;;;;5046174;28;1906;-60
2022/09/29 02:40:40;;;;;;;;;;;5.70;99.90;;;;;;5035320;28;1155;-60
2022/09/29 02:43:14;;;;;;;;;;;5.60;99.90;;;;;;5019736;28;1219;-60
2022/09/29 02:45:52;;;;;;;;;;;5.50;99.90;;;;;;5017162;28;1237;-60
2022/09/29 02:48:35;;;;;;;;;;;5.40;99.90;;;;;;5020500;28;1223;-60
2022/09/29 02:51:02;;;;;;;;;;;5.60;99.90;;;;;;5048772;28;1104;-60
2022/09/29 02:53:38;;;;;;;;;;;5.90;99.90;;;;;;5045778;28;1079;-60
2022/09/29 02:56:04;;;;;;;;;;;5.90;99.90;;;;;;5047312;28;1972;-60
2022/09/29 02:58:33;;;;;;;;;;;6.00;99.90;;;;;;5034872;28;1559;-60
2022/09/29 03:00:59;;;;;;;;;;;6.00;99.90;;;;;;5034749;28;1014;-60
2022/09/29 03:03:25;;;;;;;;;;;6.00;99.90;;;;;;5035681;28;1171;-60
2022/09/29 03:05:51;;;;;;;;;;;6.00;99.90;;;;;;5054621;28;1055;-60
2022/09/29 03:08:16;;;;;;;;;;;5.90;99.90;;;;;;5054031;28;1138;-60
2022/09/29 03:10:42;;;;;;;;;;;5.90;99.90;;;;;;5055180;28;1008;-60
2022/09/29 03:13:08;;;;;;;;;;;5.80;99.90;;;;;;5046109;28;1142;-60
2022/09/29 03:15:33;;;;;;;;;;;5.70;99.90;;;;;;5034500;28;1969;-60
2022/09/29 03:18:01;;;;;;;;;;;5.70;99.90;;;;;;5034603;28;1352;-60
2022/09/29 03:20:27;;;;;;;;;;;5.50;99.90;;;;;;5016859;28;1183;-60
2022/09/29 03:22:55;;;;;;;;;;;5.60;99.90;;;;;;5049165;28;1072;-60
2022/09/29 03:25:23;;;;;;;;;;;5.40;99.90;;;;;;5049206;28;1437;-60
2022/09/29 03:27:49;;;;;;;;;;;5.40;99.90;;;;;;5034576;28;1217;-60
2022/09/29 03:30:15;;;;;;;;;;;5.40;99.90;;;;;;5036533;28;1159;-60
2022/09/29 03:32:42;;;;;;;;;;;5.30;99.90;;;;;;5054646;28;1000;-60
2022/09/29 03:35:08;;;;;;;;;;;5.30;99.90;;;;;;5053519;28;1173;-60
2022/09/29 03:37:33;;;;;;;;;;;5.30;99.90;;;;;;5053760;28;1969;-60
2022/09/29 03:39:59;;;;;;;;;;;5.30;99.90;;;;;;5043080;28;1130;-60
2022/09/29 03:42:27;;;;;;;;;;;5.30;99.90;;;;;;5033548;28;1239;-60
2022/09/29 03:44:53;;;;;;;;;;;5.30;99.90;;;;;;5034144;28;1311;-60
2022/09/29 03:47:18;;;;;;;;;;;5.20;99.90;;;;;;5034389;28;1399;-60
2022/09/29 03:49:44;;;;;;;;;;;5.10;99.90;;;;;;5032639;28;1143;-60
2022/09/29 03:52:10;;;;;;;;;;;5.10;99.90;;;;;;5036268;28;1208;-60
2022/09/29 03:54:36;;;;;;;;;;;5.10;99.90;;;;;;5015735;28;1256;-60
2022/09/29 03:57:01;;;;;;;;;;;5.60;99.90;;;;;;5025236;28;2031;-60
2022/09/29 03:59:27;;;;;;;;;;;5.40;99.90;;;;;;5033421;28;1400;-60
2022/09/29 04:01:52;;;;;;;;;;;6.00;99.90;;;;;;5035772;28;1272;-60
2022/09/29 04:04:18;;;;;;;;;;;5.30;99.90;;;;;;5032771;28;1315;-60
2022/09/29 04:06:44;;;;;;;;;;;5.60;99.90;;;;;;5045999;28;1116;-60
2022/09/29 04:09:09;;;;;;;;;;;5.20;99.90;;;;;;5048337;28;1094;-59
2022/09/29 04:11:35;;;;;;;;;;;5.10;99.90;;;;;;5053174;28;854;-60
2022/09/29 04:14:01;;;;;;;;;;;5.00;99.90;;;;;;5036448;28;1107;-60
2022/09/29 04:16:27;;;;;;;;;;;5.00;99.90;;;;;;5033912;28;1979;-60
2022/09/29 04:18:53;;;;;;;;;;;4.90;99.90;;;;;;5040800;28;1582;-60
2022/09/29 04:21:18;;;;;;;;;;;4.90;99.90;;;;;;5036167;28;1044;-60
2022/09/29 04:23:45;;;;;;;;;;;4.90;99.90;;;;;;5046976;28;1159;-60
2022/09/29 04:26:10;;;;;;;;;;;5.00;99.90;;;;;;5032893;28;1201;-60
2022/09/29 04:28:37;;;;;;;;;;;5.00;99.90;;;;;;5049227;28;1108;-60
2022/09/29 04:31:03;;;;;;;;;;;5.10;99.90;;;;;;5035921;28;1036;-60
2022/09/29 04:33:28;;;;;;;;;;;5.20;99.90;;;;;;5052166;28;1150;-60
2022/09/29 04:35:54;;;;;;;;;;;5.20;99.90;;;;;;5052894;28;1910;-60
2022/09/29 04:38:20;;;;;;;;;;;5.20;99.90;;;;;;5035763;28;1008;-60
2022/09/29 04:40:47;;;;;;;;;;;5.10;99.90;;;;;;5033547;28;1138;-60
2022/09/29 04:43:13;;;;;;;;;;;5.10;99.90;;;;;;5033847;28;878;-60
2022/09/29 04:45:38;;;;;;;;;;;5.00;99.90;;;;;;5025808;28;1187;-60
2022/09/29 04:48:04;;;;;;;;;;;5.00;99.90;;;;;;5049727;28;1314;-60
2022/09/29 04:50:30;;;;;;;;;;;5.00;99.90;;;;;;5030944;28;1201;-60
2022/09/29 04:52:56;;;;;;;;;;;4.90;99.90;;;;;;5048549;28;1035;-60
2022/09/29 04:55:21;;;;;;;;;;;4.90;99.90;;;;;;5033156;28;1333;-60
2022/09/29 04:57:47;;;;;;;;;;;4.80;99.90;;;;;;5033723;28;1962;-60
2022/09/29 05:00:14;;;;;;;;;;;4.80;99.90;;;;;;5033728;28;1626;-60
2022/09/29 05:02:39;;;;;;;;;;;4.80;99.90;;;;;;5032454;28;1410;-60
2022/09/29 05:05:06;;;;;;;;;;;4.80;99.90;;;;;;5033766;28;1212;-60
2022/09/29 05:07:34;;;;;;;;;;;4.70;99.90;;;;;;5035966;28;1240;-60
2022/09/29 05:10:00;;;;;;;;;;;4.70;99.90;;;;;;5036876;28;1224;-60
2022/09/29 05:12:26;;;;;;;;;;;4.70;99.90;;;;;;5037432;28;1170;-60
2022/09/29 05:14:51;;;;;;;;;;;4.70;99.90;;;;;;5018887;28;1037;-60
2022/09/29 05:17:17;;;;;;;;;;;4.60;99.90;;;;;;5035775;28;1914;-60
2022/09/29 05:19:43;;;;;;;;;;;4.60;99.90;;;;;;5036661;28;1220;-60
2022/09/29 05:22:08;;;;;;;;;;;4.90;99.90;;;;;;5037566;28;1286;-60
2022/09/29 05:24:34;;;;;;;;;;;4.80;99.90;;;;;;5056715;28;1160;-60
2022/09/29 05:26:59;;;;;;;;;;;4.80;99.90;;;;;;5036571;28;1182;-60
2022/09/29 05:29:25;;;;;;;;;;;5.20;99.90;;;;;;5036321;28;1108;-60
2022/09/29 05:31:51;;;;;;;;;;;5.10;99.90;;;;;;5036679;28;1020;-60
2022/09/29 05:34:16;;;;;;;;;;;5.50;99.90;;;;;;5040857;28;1178;-60
2022/09/29 05:36:42;;;;;;;;;;;5.00;99.90;;;;;;5056235;28;1905;-60
2022/09/29 05:39:09;;;;;;;;;;;4.80;99.90;;;;;;5042182;28;1154;-60
2022/09/29 05:41:34;;;;;;;;;;;4.80;99.90;;;;;;5036722;28;893;-60
2022/09/29 05:44:00;;;;;;;;;;;4.90;99.90;;;;;;5047143;28;1194;-60
2022/09/29 05:46:26;;;;;;;;;;;4.40;99.90;;;;;;5054867;28;1138;-60
2022/09/29 05:48:52;;;;;;;;;;;4.60;99.90;;;;;;5033561;28;1239;-60
2022/09/29 05:51:19;;;;;;;;;;;4.60;99.90;;;;;;5035421;28;1291;-60
2022/09/29 05:53:45;;;;;;;;;;;4.70;99.90;;;;;;5043986;28;1171;-60
2022/09/29 05:56:13;;;;;;;;;;;3.30;99.90;;;;;;5041481;28;1965;-60
2022/09/29 05:58:39;;;;;;;;;;;4.70;99.90;;;;;;5036027;28;1668;-60
2022/09/29 06:01:06;;;;;;;;;;;4.70;99.90;;;;;;5018649;28;1156;-60
2022/09/29 06:03:33;;;;;;;;;;;4.80;99.90;;;;;;5035500;28;996;-60
2022/09/29 06:06:03;;;;;;;;;;;4.80;99.90;;;;;;5018568;28;1325;-60
2022/09/29 06:08:28;;;;;;;;;;;5.00;99.90;;;;;;5035076;28;1259;-60
2022/09/29 06:10:54;;;;;;;;;;;4.80;99.90;;;;;;5049167;28;1151;-60
2022/09/29 06:13:20;;;;;;;;;;;4.80;99.90;;;;;;5055167;28;1394;-60
2022/09/29 06:15:45;;;;;;;;;;;4.70;99.90;;;;;;5056245;28;1905;-60
2022/09/29 06:18:11;;;;;;;;;;;4.80;99.90;;;;;;5046968;28;1577;-60
2022/09/29 06:20:37;;;;;;;;;;;4.80;99.90;;;;;;5038130;28;1060;-60
2022/09/29 06:23:03;;;;;;;;;;;4.90;99.90;;;;;;5055156;28;1123;-60
2022/09/29 06:25:28;;;;;;;;;;;5.00;99.90;;;;;;5035610;28;1225;-60
2022/09/29 06:27:54;;;;;;;;;;;5.00;99.90;;;;;;5035517;28;1174;-60
2022/09/29 06:30:19;;;;;;;;;;;5.10;99.90;;;;;;5035568;28;1295;-60
2022/09/29 06:32:45;;;;;;;;;;;5.20;99.90;;;;;;5034503;28;1171;-60
2022/09/29 06:37:55;;;;;;;;;;;5.40;99.90;;;;;;5035366;28;1910;-60
2022/09/29 06:40:22;;;;;;;;;;;5.40;99.90;;;;;;5041125;28;1268;-60
2022/09/29 06:42:48;;;;;;;;;;;5.60;99.90;;;;;;5055788;28;866;-60
2022/09/29 06:45:14;;;;;;;;;;;5.80;99.90;;;;;;5055166;28;1202;-60
2022/09/29 06:47:40;;;;;;;;;;;5.70;99.90;;;;;;5040376;28;1231;-60
2022/09/29 06:50:06;;;;;;;;;;;5.50;99.90;;;;;;5034828;28;1248;-60
2022/09/29 06:52:31;;;;;;;;;;;5.80;99.90;;;;;;5034563;28;1307;-60
2022/09/29 06:54:57;;;;;;;;;;;5.80;99.90;;;;;;5047259;28;1384;-60
2022/09/29 06:57:23;;;;;;;;;;;5.40;99.90;;;;;;5043794;28;1969;-60
2022/09/29 06:59:49;;;;;;;;;;;5.60;99.90;;;;;;5034012;28;1578;-60
2022/09/29 07:02:15;;;;;;;;;;;6.00;99.90;;;;;;5034341;28;1310;-60
2022/09/29 07:04:40;;;;;;;;;;;5.70;99.90;;;;;;5017160;28;1377;-60
2022/09/29 07:07:06;;;;;;;;;;;5.90;99.90;;;;;;5038816;28;1349;-60
2022/09/29 07:09:32;;;;;;;;;;;5.60;99.90;;;;;;5037632;28;1196;-60
2022/09/29 07:11:58;;;;;;;;;;;6.00;99.90;;;;;;5035064;28;1236;-60
2022/09/29 07:14:24;;;;;;;;;;;6.00;99.90;;;;;;5034221;28;1224;-60
2022/09/29 07:16:50;;;;;;;;;;;6.10;99.90;;;;;;5021688;28;3520;-60
2022/09/29 07:19:16;;;;;;;;;;;5.80;99.90;;;;;;5025576;28;3607;-60
2022/09/29 07:21:43;;;;;;;;;;;6.10;99.90;;;;;;5034865;28;1143;-60
2022/09/29 07:24:08;;;;;;;;;;;6.00;99.90;;;;;;5022209;28;1256;-60
2022/09/29 07:26:34;;;;;;;;;;;6.40;99.90;;;;;;5034778;28;1068;-60
2022/09/29 07:29:00;;;;;;;;;;;6.30;99.90;;;;;;5035031;28;1313;-60
2022/09/29 07:31:26;;;;;;;;;;;6.50;99.90;;;;;;5054483;28;981;-60
2022/09/29 07:33:51;;;;;;;;;;;6.30;99.90;;;;;;5043450;28;1197;-60
2022/09/29 07:36:18;;;;;;;;;;;6.40;99.90;;;;;;5034029;28;1967;-60
2022/09/29 07:38:45;;;;;;;;;;;6.30;99.90;;;;;;5042325;28;1191;-60
2022/09/29 07:41:10;;;;;;;;;;;7.30;99.90;;;;;;5054752;28;1021;-60
2022/09/29 07:43:36;;;;;;;;;;;;;;;;;;5053086;28;1222;-60
2022/09/29 07:46:03;;;;;;;;;;;6.50;99.90;;;;;;5054308;28;858;-60
2022/09/29 07:48:29;;;;;;;;;;;6.70;99.90;;;;;;5047680;28;1431;-60
2022/09/29 07:51:03;;;;;;;;;;;6.70;99.90;;;;;;5033844;28;1198;-60
2022/09/29 07:53:29;;;;;;;;;;;6.80;99.90;;;;;;5033948;28;1056;-60
2022/09/29 07:55:55;;;;;;;;;;;6.90;99.90;;;;;;5037028;28;1979;-60
2022/09/29 07:58:21;;;;;;;;;;;7.10;99.90;;;;;;5029736;28;1463;-60
2022/09/29 08:00:54;;;;;;;;;;;7.20;99.90;;;;;;5028738;28;1171;-60
2022/09/29 08:03:19;;;;;;;;;;;7.30;99.90;;;;;;5005767;28;3571;-60
2022/09/29 08:05:45;;;;;;;;;;;7.50;99.90;;;;;;5037265;28;3696;-60
2022/09/29 08:08:11;;;;;;;;;;;7.70;99.90;;;;;;5033028;28;1108;-60
2022/09/29 08:10:36;;;;;;;;;;;7.80;99.90;;;;;;5032733;28;3469;-60
2022/09/29 08:13:02;;;;;;;;;;;8.10;99.90;;;;;;5033833;28;1175;-61
2022/09/29 08:15:28;;;;;;;;;;;8.40;99.90;;;;;;5034747;28;1235;-60
2022/09/29 08:17:54;;;;;;;;;;;8.50;99.90;;;;;;5046703;28;1902;-61
2022/09/29 08:20:20;;;;;;;;;;;8.70;99.90;;;;;;5034816;28;1120;-60
2022/09/29 08:22:47;;;;;;;;;;;8.90;99.90;;;;;;5003995;28;3421;-60
2022/09/29 08:25:13;;;;;;;;;;;9.10;99.90;;;;;;5014316;28;2156;-60
2022/09/29 08:27:39;;;;;;;;;;;9.20;99.90;;;;;;5020254;28;1159;-61
2022/09/29 08:30:05;;;;;;;;;;;9.40;99.90;;;;;;5053000;28;1402;-60
2022/09/29 08:32:30;;;;;;;;;;;9.50;99.90;;;;;;5047059;28;1068;-60
2022/09/29 08:34:56;;;;;;;;;;;9.80;99.90;;;;;;5048792;28;1488;-60
2022/09/29 08:37:22;;;;;;;;;;;10.00;99.90;;;;;;5027365;28;3658;-60
2022/09/29 08:39:47;;;;;;;;;;;10.10;99.90;;;;;;5028180;28;3687;-61
2022/09/29 08:42:16;;;;;;;;;;;10.30;99.90;;;;;;5036568;28;3987;-60
2022/09/29 08:44:45;;;;;;;;;;;10.30;99.90;;;;;;5025995;28;3932;-60
2022/09/29 08:47:15;;;;;;;;;;;10.50;99.90;;;;;;5031182;28;3837;-61
2022/09/29 08:49:42;;;;;;;;;;;10.60;99.90;;;;;;5031427;28;3649;-61
2022/09/29 08:52:11;;;;;;;;;;;10.80;99.90;;;;;;5028065;28;3715;-60
2022/09/29 08:54:38;;;;;;;;;;;11.10;99.90;;;;;;5037769;28;1409;-60
2022/09/29 08:57:05;;;;;;;;;;;11.30;99.90;;;;;;5034811;28;3652;-60
2022/09/29 08:59:31;;;;;;;;;;;11.50;99.90;;;;;;5035952;28;1359;-60
2022/09/29 09:02:15;;;;;;;;;;;11.60;99.90;;;;;;5019468;28;1384;-60
2022/09/29 09:04:41;;;;;;;;;;;11.50;99.90;;;;;;5055504;28;1421;-60
2022/09/29 09:07:17;;;;;;;;;;;11.60;99.90;;;;;;5029813;28;1594;-60
2022/09/29 09:09:42;;;;;;;;;;;11.70;99.90;;;;;;5031393;28;3552;-60
2022/09/29 09:12:15;;;;;;;;;;;11.90;99.90;;;;;;5053859;28;1186;-60
2022/09/29 09:14:50;;;;;;;;;;;11.90;99.90;;;;;;5055921;28;989;-60
2022/09/29 09:17:22;;;;;;;;;;;12.00;99.90;;;;;;5038277;28;1975;-60
2022/09/29 09:19:54;;;;;;;;;;;12.10;99.90;;;;;;5038505;28;1147;-60
2022/09/29 09:22:21;;;;;;;;;;;12.30;99.90;;;;;;5053720;28;1155;-60
2022/09/29 09:24:50;;;;;;;;;;;12.60;99.90;;;;;;5056161;28;1138;-60
2022/09/29 09:27:21;;;;;;;;;;;12.80;99.90;;;;;;5055995;28;1028;-60
2022/09/29 09:29:48;;;;;;;;;;;13.00;99.90;;;;;;5043351;28;1197;-60
2022/09/29 09:32:20;;;;;;;;;;;13.20;99.90;;;;;;5056820;28;1013;-60
2022/09/29 09:34:50;;;;;;;;;;;13.20;99.90;;;;;;5055145;28;1103;-60
2022/09/29 09:37:19;;;;;;;;;;;13.30;99.90;;;;;;5044758;28;1972;-61
2022/09/29 09:39:45;;;;;;;;;;;13.40;99.90;;;;;;5036537;28;1403;-60
2022/09/29 09:42:17;;;;;;;;;;;13.30;99.90;;;;;;5018611;28;1113;-61
2022/09/29 09:44:47;;;;;;;;;;;13.40;99.90;;;;;;5036286;28;1705;-61
2022/09/29 09:47:22;;;;;;;;;;;13.60;99.90;;;;;;5035185;28;1192;-60
2022/09/29 09:49:51;;;;;;;;;;;13.70;99.90;;;;;;5017791;28;1579;-60
2022/09/29 09:52:16;;;;;;;;;;;13.90;99.90;;;;;;5026855;28;3526;-61
2022/09/29 09:54:44;;;;;;;;;;;13.70;99.90;;;;;;5039291;28;1305;-61
2022/09/29 09:57:21;;;;;;;;;;;13.50;99.90;;;;;;5034725;28;3675;-60
2022/09/29 09:59:47;;;;;;;;;;;13.50;99.90;;;;;;5025200;28;3663;-61
2022/09/29 10:02:16;;;;;;;;;;;13.70;99.90;;;;;;5024857;28;3662;-61
2022/09/29 10:04:42;;;;;;;;;;;13.80;99.90;;;;;;5011301;28;3665;-60
2022/09/29 10:07:08;;;;;;;;;;;13.80;99.90;;;;;;5027109;28;3640;-60
2022/09/29 10:09:34;;;;;;;;;;;14.10;99.90;;;;;;5027064;28;1250;-60
2022/09/29 10:12:00;;;;;;;;;;;14.70;99.90;;;;;;5035304;28;3789;-60
2022/09/29 10:14:27;;;;;;;;;;;15.70;99.90;;;;;;5036174;28;11429;-60
2022/09/29 10:16:55;;;;;;;;;;;16.10;99.90;;;;;;5052978;28;9726;-60
2022/09/29 10:19:22;;;;;;;;;;;16.70;99.90;;;;;;5053932;28;1257;-61
2022/09/29 10:21:48;;;;;;;;;;;17.30;99.90;;;;;;5064714;28;1076;-61
2022/09/29 10:24:22;;;;;;;;;;;17.50;99.90;;;;;;5075410;28;964;-61
2022/09/29 10:26:49;;;;;;;;;;;17.80;99.90;;;;;;5075526;28;1233;-61
2022/09/29 10:29:22;;;;;;;;;;;17.80;99.90;;;;;;5075754;28;984;-61
2022/09/29 10:32:00;;;;;;;;;;;17.50;99.60;;;;;;5074638;28;1186;-61
2022/09/29 10:34:27;;;;;;;;;;;18.10;99.90;;;;;;5076252;28;937;-61
2022/09/29 10:36:56;;;;;;;;;;;18.50;99.90;;;;;;5074930;28;1909;-61
2022/09/29 10:39:41;;;;;;;;;;;19.30;99.90;;;;;;5056586;28;1225;-61
2022/09/29 10:42:22;;;;;;;;;;;19.90;99.90;;;;;;5057889;28;810;-61
2022/09/29 10:44:53;;;;;;;;;;;19.00;96.60;;;;;;5045882;28;1206;-60
2022/09/29 10:47:19;;;;;;;;;;;19.20;99.30;;;;;;5055614;28;1182;-60
2022/09/29 10:49:45;;;;;;;;;;;19.20;99.70;;;;;;5041950;28;1247;-60
2022/09/29 10:52:20;;;;;;;;;;;18.70;99.90;;;;;;5034619;28;1081;-61
2022/09/29 10:54:54;;;;;;;;;;;18.40;99.90;;;;;;5054309;28;1285;-60
2022/09/29 10:57:23;;;;;;;;;;;18.80;99.10;;;;;;5065241;28;1906;-60
2022/09/29 10:59:51;;;;;;;;;;;19.40;97.10;;;;;;5058756;28;1589;-61
2022/09/29 11:02:31;;;;;;;;;;;20.00;95.90;;;;;;5054982;28;1150;-61
2022/09/29 11:04:59;;;;;;;;;;;19.20;96.70;;;;;;5054375;28;1135;-61
2022/09/29 11:07:25;;;;;;;;;;;17.90;98.20;;;;;;5054617;28;1021;-61
2022/09/29 11:09:53;;;;;;;;;;;17.00;99.90;;;;;;5037087;28;1017;-61
2022/09/29 11:12:41;;;;;;;;;;;16.50;99.90;;;;;;5055793;28;1232;-61
2022/09/29 11:15:22;;;;;;;;;;;17.20;99.90;;;;;;5045879;28;1204;-61
2022/09/29 11:17:48;;;;;;;;;;;18.40;99.10;;;;;;5054747;28;1971;-61
2022/09/29 11:20:14;;;;;;;;;;;18.30;99.20;;;;;;5053431;28;1159;-61
2022/09/29 11:22:41;;;;;;;;;;;18.70;98.20;;;;;;5053097;28;1718;-61
2022/09/29 11:25:21;;;;;;;;;;;19.30;96.90;;;;;;5034871;28;1055;-61
2022/09/29 11:27:51;;;;;;;;;;;20.20;96.60;;;;;;5034025;28;1195;-61
2022/09/29 11:30:17;;;;;;;;;;;21.10;91.20;;;;;;5017203;28;1024;-61
2022/09/29 11:32:52;;;;;;;;;;;20.70;90.80;;;;;;5054668;28;1253;-61
2022/09/29 11:35:18;;;;;;;;;;;19.40;91.80;;;;;;5061663;28;1137;-61
2022/09/29 11:37:46;;;;;;;;;;;18.60;95.00;;;;;;5054061;28;1887;-61
2022/09/29 11:40:24;;;;;;;;;;;17.60;97.30;;;;;;5033388;28;1627;-61
2022/09/29 11:42:57;;;;;;;;;;;16.70;99.20;;;;;;5035230;28;1283;-61
2022/09/29 11:45:30;;;;;;;;;;;16.20;99.90;;;;;;5053864;28;1256;-61
2022/09/29 11:47:55;;;;;;;;;;;15.80;99.90;;;;;;5054838;28;1264;-61
2022/09/29 11:50:30;;;;;;;;;;;15.50;99.90;;;;;;5062704;28;1240;-61
2022/09/29 11:53:03;;;;;;;;;;;15.20;99.90;;;;;;5068466;28;1036;-61
2022/09/29 11:55:36;;;;;;;;;;;15.10;99.90;;;;;;5052912;28;1389;-61
2022/09/29 11:58:20;;;;;;;;;;;15.00;99.90;;;;;;5053390;28;1909;-60
2022/09/29 12:00:45;;;;;;;;;;;15.00;99.90;;;;;;5054135;28;1093;-61
2022/09/29 12:03:15;;;;;;;;;;;14.90;99.90;;;;;;5035265;28;1195;-61
2022/09/29 12:05:41;;;;;;;;;;;14.70;99.90;;;;;;5034002;28;1017;-60
2022/09/29 12:08:17;;;;;;;;;;;14.60;99.90;;;;;;5044229;28;1148;-61
2022/09/29 12:10:43;;;;;;;;;;;14.60;99.90;;;;;;5053406;28;869;-61
2022/09/29 12:13:10;;;;;;;;;;;14.70;99.90;;;;;;5062201;28;1151;-61
2022/09/29 12:15:43;;;;;;;;;;;15.10;99.90;;;;;;5066265;28;1160;-61
2022/09/29 12:18:14;;;;;;;;;;;15.70;99.90;;;;;;5043637;28;3235;-60
2022/09/29 12:20:42;;;;;;;;;;;15.70;99.90;;;;;;5052204;28;3749;-61
2022/09/29 12:23:10;;;;;;;;;;;15.50;99.90;;;;;;5071352;28;1159;-61
2022/09/29 12:25:38;;;;;;;;;;;15.20;99.90;;;;;;5059574;28;3677;-61
2022/09/29 12:28:10;;;;;;;;;;;14.90;99.90;;;;;;5039752;28;3563;-61
2022/09/29 12:30:42;;;;;;;;;;;14.80;99.90;;;;;;5045431;28;3181;-61
2022/09/29 12:33:16;;;;;;;;;;;14.60;99.90;;;;;;5053563;28;3801;-61
2022/09/29 12:35:47;;;;;;;;;;;14.60;99.90;;;;;;5052910;28;3621;-61
2022/09/29 12:38:16;;;;;;;;;;;14.50;99.90;;;;;;5052305;28;1913;-60
2022/09/29 12:40:45;;;;;;;;;;;14.50;99.90;;;;;;5052185;28;1159;-60
2022/09/29 12:43:31;;;;;;;;;;;14.50;99.90;;;;;;5072715;28;1131;-60
2022/09/29 12:46:00;;;;;;;;;;;14.70;99.90;;;;;;5063922;28;1170;-60
2022/09/29 12:48:26;;;;;;;;;;;15.00;99.90;;;;;;5054858;28;3582;-61
2022/09/29 12:51:11;;;;;;;;;;;15.90;99.90;;;;;;5053587;28;997;-60
2022/09/29 12:53:44;;;;;;;;;;;17.40;99.90;;;;;;5043526;28;1128;-60
2022/09/29 12:56:20;;;;;;;;;;;18.90;97.20;;;;;;5034433;28;1918;-61
2022/09/29 12:58:51;;;;;;;;;;;19.90;96.70;;;;;;5035412;28;1798;-60
2022/09/29 13:01:25;;;;;;;;;;;19.90;92.40;;;;;;5053002;28;1649;-60
2022/09/29 13:03:51;;;;;;;;;;;19.50;94.60;;;;;;5043733;28;1615;-60
2022/09/29 13:06:17;;;;;;;;;;;18.80;96.60;;;;;;5051942;28;1312;-60
2022/09/29 13:09:06;;;;;;;;;;;17.90;96.20;;;;;;5052358;28;1105;-60
2022/09/29 13:11:47;;;;;;;;;;;17.00;97.40;;;;;;5047205;28;1845;-60
2022/09/29 13:14:17;;;;;;;;;;;16.20;98.90;;;;;;5053272;28;1239;-60
2022/09/29 13:16:42;;;;;;;;;;;15.70;99.90;;;;;;5053130;28;1981;-60
2022/09/29 13:19:14;;;;;;;;;;;15.40;99.90;;;;;;5047543;28;1384;-61
2022/09/29 13:21:59;;;;;;;;;;;15.20;99.90;;;;;;5052863;28;1205;-61
2022/09/29 13:24:40;;;;;;;;;;;15.10;99.90;;;;;;5052366;28;1268;-62
2022/09/29 13:27:15;;;;;;;;;;;15.10;99.90;;;;;;5053830;28;1302;-61
2022/09/29 13:29:46;;;;;;;;;;;15.00;99.90;;;;;;5056745;28;985;-61
2022/09/29 13:32:11;;;;;;;;;;;15.10;99.90;;;;;;5055542;28;1646;-61
2022/09/29 13:34:38;;;;;;;;;;;15.40;99.90;;;;;;5037954;28;1095;-61
2022/09/29 13:37:10;;;;;;;;;;;15.90;99.90;;;;;;5056818;28;1906;-61
2022/09/29 13:39:37;;;;;;;;;;;16.30;99.90;;;;;;5056571;28;1068;-62
2022/09/29 13:42:32;;;;;;;;;;;16.70;99.80;;;;;;5067501;28;1119;-61
2022/09/29 13:45:27;;;;;;;;;;;17.20;99.40;;;;;;5075915;28;1115;-61
2022/09/29 13:47:57;;;;;;;;;;;17.90;98.60;;;;;;5074191;28;1827;-62
2022/09/29 13:50:42;;;;;;;;;;;18.50;95.70;;;;;;5053790;28;1025;-61
2022/09/29 13:53:17;;;;;;;;;;;18.50;95.60;;;;;;5052157;28;1060;-62
2022/09/29 13:55:48;;;;;;;;;;;18.80;95.50;;;;;;5067987;28;1200;-61
2022/09/29 13:58:22;;;;;;;;;;;19.30;94.20;;;;;;5055822;28;1906;-61
2022/09/29 14:00:48;;;;;;;;;;;19.80;93.70;;;;;;5054303;28;1217;-62
2022/09/29 14:03:28;;;;;;;;;;;20.00;93.00;;;;;;5065111;28;1123;-62
2022/09/29 14:05:55;;;;;;;;;;;19.90;92.50;;;;;;5067825;28;1300;-62
2022/09/29 14:08:23;;;;;;;;;;;20.40;91.80;;;;;;5053766;28;1257;-62
2022/09/29 14:10:53;;;;;;;;;;;20.40;93.40;;;;;;5055635;28;1252;-61
2022/09/29 14:13:20;;;;;;;;;;;20.30;94.30;;;;;;5047968;28;1248;-61
2022/09/29 14:15:49;;;;;;;;;;;19.90;95.30;;;;;;5055201;28;1124;-61
2022/09/29 14:18:17;;;;;;;;;;;20.30;96.60;;;;;;5065807;28;1906;-61
2022/09/29 14:20:56;;;;;;;;;;;21.50;95.00;;;;;;5037900;28;1155;-61
2022/09/29 14:23:41;;;;;;;;;;;22.60;94.00;;;;;;5055440;28;1008;-62
2022/09/29 14:26:26;;;;;;;;;;;22.90;92.00;;;;;;5066211;28;1198;-62
2022/09/29 14:28:53;;;;;;;;;;;21.90;91.60;;;;;;5074984;28;2022;-62
2022/09/29 14:31:20;;;;;;;;;;;20.70;92.30;;;;;;5057987;28;1243;-61
2022/09/29 14:33:48;;;;;;;;;;;19.50;92.80;;;;;;5055464;28;1283;-61
2022/09/29 14:36:18;;;;;;;;;;;18.80;94.70;;;;;;5056273;28;1963;-61
2022/09/29 14:38:46;;;;;;;;;;;18.30;95.40;;;;;;5053174;28;1284;-62
2022/09/29 14:41:19;;;;;;;;;;;17.80;96.30;;;;;;5054995;28;1200;-61
2022/09/29 14:43:45;;;;;;;;;;;17.40;97.30;;;;;;5054185;28;1259;-61
2022/09/29 14:52:39;;;;;;;;;;;16.10;99.90;;;;;;5065392;28;3181;-60
2022/09/29 14:55:10;;;;;;;;;;;15.70;99.90;;;;;;5052554;28;2316;-60
2022/09/29 14:57:42;;;;;;;;;;;15.30;99.90;;;;;;5051220;28;1917;-61